< Cyclone 195612 1956 Season Cyclone 195616 >
Cyclone 195613 (AGNES)
General InformationTrack Information on Google Maps || ResourceGoogle EarthGE AnimationAtom FeedGeoJSON
Detalied Best Track (Time Zone = UTC)
Year Month Day Hour Lat. Long. Pressure (hPa) Wind (kt) Class Image Chart
1956 2 23 05 -16.9 175.0 1004 0 0 -- --
1956 2 23 23 -16.9 175.0 1002 0 0 -- --
1956 2 24 17 -16.9 175.0 999 0 0 -- --
1956 2 24 23 -17.3 175.2 1000 0 0 -- --
1956 2 25 17 -18.4 175.5 994 0 0 -- --
1956 2 25 23 -18.8 175.3 996 0 0 -- --
1956 2 26 23 -19.9 174.5 990 0 0 -- --
1956 2 27 23 -19.9 173.0 990 0 0 -- --
1956 2 28 23 -20.9 169.7 976 0 0 -- --
1956 2 29 17 -21.2 166.5 980 0 0 -- --
1956 2 29 23 -19.9 166.0 980 0 0 -- --
1956 3 1 23 -18.9 162.5 980 0 0 -- --
1956 3 2 23 -18.9 158.5 980 0 0 -- --
1956 3 3 05 -18.9 157.5 978 0 0 -- --
1956 3 3 17 -19.1 156.5 978 0 0 -- --
1956 3 3 23 -19.3 155.5 979 0 0 -- --
1956 3 4 05 -19.4 154.5 977 0 0 -- --
1956 3 4 23 -20.4 151.5 976 0 0 -- --
1956 3 5 05 -20.4 150.8 975 0 0 -- --
1956 3 5 11 -20.1 149.5 974 0 0 -- --
1956 3 5 16 -20.1 148.8 971 0 0 -- --
1956 3 5 17 -19.9 148.6 971 0 0 -- --
1956 3 5 18 -20.0 148.4 971 0 0 -- --
1956 3 5 23 -19.4 148.1 968 0 0 -- --
1956 3 6 05 -19.1 146.8 961 0 0 -- --
1956 3 6 07 -19.1 146.7 961 0 0 -- --
1956 3 6 11 -18.4 145.9 966 0 0 -- --
1956 3 6 17 -18.3 145.1 971 0 0 -- --
1956 3 6 23 -18.9 143.5 978 0 0 -- --
1956 3 7 05 -19.3 143.0 986 0 0 -- --
< Cyclone 195612 1956 Season Cyclone 195616 >

Help